Terminal Aerodrome Forecast
Issued by NWS Lake Charles, LA

Home | Current Version | Previous Version | Text Only | Print | Product List | Glossary On
Versions: 1 2 3 4 5 6 7 8 9
000
FTUS44 KLCH 272300
TAFAEX
TAF
KAEX 272339Z 2800/2824 33006KT 4SM -SHRA BR VCTS OVC005CB
      TEMPO 2800/2802 2SM +TSRA SCT005 OVC009CB
     FM280400 33008KT 3SM BR VCSH OVC003
     FM281500 35010G16KT 5SM BR VCSH OVC009
      TEMPO 2816/2820 -SHRA=

USA.gov is the U.S. government's official web portal to all federal, state and local government web resources and services.